Aeroporto :
LOGIN :

Iscrizione | Disclaimer

   EN    FR    IT 

 










Sommario :    VFR   VFR Marginale   IFR   IFR Intensivo   IFR Molto Intensivo
Visibilità : 
Base nubi : 
>= 8 km
>= 3000ft
5 / 8 km
1000 / 3000 ft
1500m / 5 km
500 / 1000 ft
800 / 1500m
200 / 500 ft
< 800m
< 200 ft
Simboli :   Temporali  Nebbia  Neve Forte  Precipitazioni Forti  Vento > 20 kt
SIGMETs :   Varie  Temporali  Ghiacco  Turbolenza  Onda orograficha  Ceneri Vulcaniche







- Altitudine del aeroporto : 408 ft
- Codice IATA : FKB


EDSB - Karlsruhe Baden Baden

ULTIMO METAR :
  • 210120Z AUTO 20002KT 1500 0550 R03/0750U NCD 02/02 Q1027

METARs OBSOLETI :
  • 210050Z AUTO 17001KT 3700 NCD 02/02 Q1027
  • 210020Z AUTO 13003KT 7000 NCD 02/01 Q1027
  • 202350Z AUTO 21001KT 6000 NCD 03/02 Q1027
  • 202320Z AUTO 19001KT 8000 FEW140/// 03/03 Q1026
  • 202220Z VRB01KT CAVOK 04/03 Q1026

TAF TAF EDSB
Valido dal 20 a 18 ore il 21 a 18 ore UTC


201700Z 2018/2118 20003KT CAVOK
BECMG 2023/2101 0500 FG
TEMPO 2101/2109 1000 BR
BECMG 2109/2111 CAVOK
Nessun NOTAM noto per questo aeroporto.



MetMap, La meteo Aeronautica in un colpo d'occhio ! - Copyright ORBIFLY Dicembre 2007 - Disclaimer

ORBIFLY MET'MAP TEAM :

Programmazione e sviluppo : Alexandra Zaïnal
Concezione e sviluppo : Baudouin d'Aumeries
Co-Programmazione e sviluppo : Marc-Olivier Méhu
Supporto tecnico e logistico : Manuel Goepfert
Aiuto per la traduzione : Arnaldo La Scala

Contatto : metmap@orbifly.com




FONTI E CREDITI :

   NOAA